createdAt,value
2022-12-12T00:03:22.591Z,-3.59
2022-12-12T00:07:39.542Z,-3.62
2022-12-12T00:11:56.597Z,-3.58
2022-12-12T00:16:13.852Z,-3.55
2022-12-12T00:20:31.062Z,-3.62
2022-12-12T00:24:47.907Z,-3.61
2022-12-12T00:29:06.066Z,-3.64
2022-12-12T00:33:22.993Z,-3.58
2022-12-12T00:37:40.022Z,-3.58
2022-12-12T00:41:56.916Z,-3.61
2022-12-12T00:46:21.143Z,-3.54
2022-12-12T00:50:38.242Z,-3.59
2022-12-12T00:54:55.382Z,-3.61
2022-12-12T00:59:12.240Z,-3.59
2022-12-12T01:03:29.305Z,-3.55
2022-12-12T01:07:46.230Z,-3.56
2022-12-12T01:12:03.381Z,-3.51
2022-12-12T01:16:21.699Z,-3.48
2022-12-12T01:20:38.844Z,-3.48
2022-12-12T01:24:57.305Z,-3.48
2022-12-12T01:29:14.107Z,-3.38
2022-12-12T01:33:31.161Z,-3.44
2022-12-12T01:37:49.610Z,-3.37
2022-12-12T01:42:14.269Z,-3.38
2022-12-12T01:46:43.864Z,-3.44
2022-12-12T01:51:06.550Z,-3.47
2022-12-12T01:55:24.023Z,-3.43
2022-12-12T01:59:41.351Z,-3.44
2022-12-12T02:04:00.967Z,-3.44
2022-12-12T02:08:21.203Z,-3.41
2022-12-12T02:12:38.360Z,-3.41
2022-12-12T02:17:10.002Z,-3.43
2022-12-12T02:21:34.360Z,-3.47
2022-12-12T02:26:45.122Z,-3.44
2022-12-12T02:31:21.835Z,-3.45
2022-12-12T02:36:10.868Z,-3.41
2022-12-12T02:40:42.063Z,-3.44
2022-12-12T02:45:23.174Z,-3.45
2022-12-12T02:49:55.101Z,-3.43
2022-12-12T02:54:19.440Z,-3.48
2022-12-12T02:58:38.953Z,-3.50
2022-12-12T03:03:37.346Z,-3.50
2022-12-12T03:08:22.445Z,-3.43
2022-12-12T03:13:10.558Z,-3.44
2022-12-12T03:17:42.375Z,-3.43
2022-12-12T03:22:20.775Z,-3.43
2022-12-12T03:27:00.765Z,-3.51
2022-12-12T03:31:25.257Z,-3.55
2022-12-12T03:35:59.636Z,-3.61
2022-12-12T03:40:28.387Z,-3.61
2022-12-12T03:45:00.455Z,-3.65
2022-12-12T03:49:29.790Z,-3.65
2022-12-12T03:53:52.584Z,-3.68
2022-12-12T03:58:21.669Z,-3.64
2022-12-12T04:02:52.218Z,-3.70
2022-12-12T04:07:29.180Z,-3.67
2022-12-12T04:12:19.931Z,-3.65
2022-12-12T04:16:42.884Z,-3.64
2022-12-12T04:21:42.704Z,-3.65
2022-12-12T04:26:41.918Z,-3.56
2022-12-12T04:31:05.139Z,-3.61
2022-12-12T04:35:35.860Z,-3.50
2022-12-12T04:39:57.828Z,-3.56
2022-12-12T04:44:17.139Z,-3.50
2022-12-12T04:48:53.615Z,-3.56
2022-12-12T04:53:18.994Z,-3.51
2022-12-12T04:57:43.459Z,-3.51
2022-12-12T05:02:14.495Z,-3.56
2022-12-12T05:06:49.324Z,-3.48
2022-12-12T05:11:07.345Z,-3.45
2022-12-12T05:15:25.195Z,-3.43
2022-12-12T05:19:42.092Z,-3.45
2022-12-12T05:23:59.165Z,-3.54
2022-12-12T05:28:16.000Z,-3.54
2022-12-12T05:32:33.083Z,-3.48
2022-12-12T05:36:50.048Z,-3.48
2022-12-12T05:41:07.381Z,-3.45
2022-12-12T05:45:24.488Z,-3.38
2022-12-12T05:49:41.339Z,-3.51
2022-12-12T05:53:58.341Z,-3.43
2022-12-12T05:58:15.323Z,-3.41
2022-12-12T06:02:32.499Z,-3.38
2022-12-12T06:06:49.405Z,-3.41
2022-12-12T06:11:08.265Z,-3.31
2022-12-12T06:15:25.174Z,-3.31
2022-12-12T06:19:42.477Z,-3.38
2022-12-12T06:23:59.657Z,-3.43
2022-12-12T06:28:16.582Z,-3.41
2022-12-12T06:32:33.639Z,-3.43
2022-12-12T06:36:50.633Z,-3.27
2022-12-12T06:41:10.899Z,-3.33
2022-12-12T06:45:27.771Z,-3.24
2022-12-12T06:49:44.738Z,-3.16
2022-12-12T06:54:01.698Z,-3.10
2022-12-12T06:58:18.607Z,-3.06
2022-12-12T07:02:35.968Z,-3.12
2022-12-12T07:06:53.131Z,-3.03
2022-12-12T07:11:23.714Z,-3.07
2022-12-12T07:15:59.308Z,-2.95
2022-12-12T07:20:16.273Z,-2.85
2022-12-12T07:24:33.361Z,-3.00
2022-12-12T07:28:51.709Z,-2.86
2022-12-12T07:33:09.437Z,-2.77
2022-12-12T07:37:26.666Z,-2.74
2022-12-12T07:41:43.733Z,-2.65
2022-12-12T07:46:00.683Z,-2.62
2022-12-12T07:50:17.994Z,-2.40
2022-12-12T07:54:34.833Z,-2.48
2022-12-12T07:58:53.851Z,-2.53
2022-12-12T08:03:10.652Z,-2.40
2022-12-12T08:07:27.700Z,-2.39
2022-12-12T08:11:46.645Z,-2.40
2022-12-12T08:16:06.226Z,-2.37
2022-12-12T08:20:23.154Z,-2.40
2022-12-12T08:24:40.469Z,-2.27
2022-12-12T08:28:58.760Z,-2.14
2022-12-12T08:33:16.092Z,-2.17
2022-12-12T08:37:32.989Z,-2.12
2022-12-12T08:41:50.882Z,-1.95
2022-12-12T08:46:16.823Z,-2.06
2022-12-12T08:50:35.245Z,-1.89
2022-12-12T08:54:52.180Z,-1.83
2022-12-12T08:59:10.536Z,-1.78
2022-12-12T09:03:29.536Z,-1.67
2022-12-12T09:07:46.707Z,-1.57
2022-12-12T09:12:03.924Z,-1.65
2022-12-12T09:16:22.301Z,-1.54
2022-12-12T09:20:39.544Z,-1.53
2022-12-12T09:24:56.489Z,-1.48
2022-12-12T09:29:13.610Z,-1.71
2022-12-12T09:33:30.755Z,-1.74
2022-12-12T09:37:47.581Z,-1.75
2022-12-12T09:42:32.722Z,-1.77
2022-12-12T09:47:01.151Z,-1.70
2022-12-12T09:51:18.134Z,-1.67
2022-12-12T09:55:45.054Z,-1.63
2022-12-12T10:00:09.735Z,-1.65
2022-12-12T10:04:40.381Z,-1.48
2022-12-12T10:09:42.048Z,-1.68
2022-12-12T10:14:02.685Z,-1.65
2022-12-12T10:18:39.332Z,-1.64
2022-12-12T10:23:28.987Z,-1.54
2022-12-12T10:27:46.299Z,-1.43
2022-12-12T10:32:29.064Z,-1.47
2022-12-12T10:37:17.633Z,-1.37
2022-12-12T10:41:51.355Z,-1.54
2022-12-12T10:46:49.267Z,-1.47
2022-12-12T10:51:12.096Z,-1.46
2022-12-12T10:55:50.161Z,-1.30
2022-12-12T11:00:32.659Z,-1.33
2022-12-12T11:04:49.773Z,-1.42
2022-12-12T11:09:10.011Z,-1.34
2022-12-12T11:13:27.233Z,-1.27
2022-12-12T11:17:44.793Z,-1.37
2022-12-12T11:22:04.445Z,-1.20
2022-12-12T11:26:22.782Z,-1.20
2022-12-12T11:30:43.916Z,-1.20
2022-12-12T11:35:03.730Z,-1.13
2022-12-12T11:39:36.411Z,-1.22
2022-12-12T11:43:58.407Z,-1.13
2022-12-12T11:48:33.655Z,-1.05
2022-12-12T11:53:04.151Z,-1.00
2022-12-12T11:58:04.474Z,-1.08
2022-12-12T12:02:49.099Z,-1.05
2022-12-12T12:07:24.247Z,-0.86
2022-12-12T12:12:11.839Z,-0.77
2022-12-12T12:16:47.399Z,-0.78
2022-12-12T12:21:27.566Z,-0.78
2022-12-12T12:26:18.815Z,-0.69
2022-12-12T12:30:52.857Z,-0.67
2022-12-12T12:35:31.068Z,-0.64
2022-12-12T12:40:12.067Z,-0.65
2022-12-12T12:44:51.229Z,-0.65
2022-12-12T12:49:31.678Z,-0.75
2022-12-12T12:54:15.830Z,-0.79
2022-12-12T12:58:42.641Z,-0.81
2022-12-12T13:03:19.985Z,-0.81
2022-12-12T13:07:48.571Z,-0.86
2022-12-12T13:12:14.902Z,-0.92
2022-12-12T13:16:33.333Z,-0.91
2022-12-12T13:21:39.450Z,-0.92
2022-12-12T13:26:27.364Z,-0.93
2022-12-12T13:31:13.035Z,-0.98
2022-12-12T13:35:51.189Z,-1.09
2022-12-12T13:40:27.252Z,-1.09
2022-12-12T13:44:47.857Z,-0.99
2022-12-12T13:49:07.669Z,-1.03
2022-12-12T13:53:24.703Z,-1.03
2022-12-12T13:58:05.844Z,-1.05
2022-12-12T14:02:41.690Z,-1.03
2022-12-12T14:07:02.162Z,-1.03
2022-12-12T14:11:37.632Z,-1.09
2022-12-12T14:15:57.751Z,-1.15
2022-12-12T14:20:31.640Z,-1.12
2022-12-12T14:25:11.938Z,-1.12
2022-12-12T14:29:34.403Z,-1.16
2022-12-12T14:39:27.746Z,-1.09
2022-12-12T14:44:34.995Z,-1.06
2022-12-12T14:48:37.625Z,-1.03
2022-12-12T14:52:55.031Z,-1.03
2022-12-12T14:57:23.298Z,-1.03
2022-12-12T15:01:53.553Z,-1.08
2022-12-12T15:06:40.969Z,-1.02
2022-12-12T15:11:00.677Z,-1.00
2022-12-12T15:15:31.309Z,-1.00
2022-12-12T15:19:53.435Z,-0.99
2022-12-12T15:24:23.557Z,-0.95
2022-12-12T15:28:45.544Z,-0.96
2022-12-12T15:33:05.984Z,-0.98
2022-12-12T15:37:28.790Z,-0.95
2022-12-12T15:41:46.464Z,-0.96
2022-12-12T15:46:14.525Z,-0.95
2022-12-12T15:50:43.796Z,-0.92
2022-12-12T15:55:04.116Z,-0.95
2022-12-12T15:59:30.242Z,-0.92
2022-12-12T16:04:10.020Z,-0.95
2022-12-12T16:08:44.126Z,-1.00
2022-12-12T16:13:34.448Z,-0.96
2022-12-12T16:17:59.451Z,-1.00
2022-12-12T16:22:47.535Z,-0.95
2022-12-12T16:27:07.774Z,-0.95
2022-12-12T16:31:24.857Z,-0.89
2022-12-12T16:35:41.702Z,-0.88
2022-12-12T16:39:58.891Z,-0.81
2022-12-12T16:44:15.716Z,-0.86
2022-12-12T16:48:37.070Z,-0.86
2022-12-12T16:52:55.345Z,-0.95
2022-12-12T16:57:12.823Z,-0.91
2022-12-12T17:01:33.329Z,-0.86
2022-12-12T17:05:53.425Z,-0.91
2022-12-12T17:10:11.310Z,-0.91
2022-12-12T17:14:28.580Z,-0.89
2022-12-12T17:18:45.491Z,-0.93
2022-12-12T17:27:33.381Z,-0.99
2022-12-12T17:31:50.871Z,-1.00
2022-12-12T17:36:08.383Z,-0.91
2022-12-12T17:40:26.403Z,-0.85
2022-12-12T17:44:43.432Z,-0.93
2022-12-12T17:49:02.106Z,-0.98
2022-12-12T17:53:19.059Z,-0.95
2022-12-12T17:57:36.475Z,-0.96
2022-12-12T18:01:54.172Z,-0.96
2022-12-12T18:06:12.129Z,-0.96
2022-12-12T18:10:29.165Z,-0.96
2022-12-12T18:14:46.493Z,-0.96
2022-12-12T18:19:03.917Z,-0.92
2022-12-12T18:23:20.778Z,-0.93
2022-12-12T18:27:38.565Z,-0.91
2022-12-12T18:31:55.517Z,-0.89
2022-12-12T18:36:19.254Z,-0.89
2022-12-12T18:40:39.443Z,-0.92
2022-12-12T18:44:56.617Z,-0.92
2022-12-12T18:49:18.411Z,-0.92
2022-12-12T18:53:38.034Z,-0.95
2022-12-12T18:57:54.964Z,-1.05
2022-12-12T19:02:14.079Z,-1.03
2022-12-12T19:06:36.342Z,-1.26
2022-12-12T19:10:53.374Z,-1.19
2022-12-12T19:15:18.612Z,-1.20
2022-12-12T19:19:36.025Z,-1.16
2022-12-12T19:23:58.773Z,-1.26
2022-12-12T19:28:15.861Z,-1.13
2022-12-12T19:32:33.284Z,-1.15
2022-12-12T19:36:50.341Z,-1.19
2022-12-12T19:41:08.954Z,-1.16
2022-12-12T19:45:26.100Z,-1.25
2022-12-12T19:49:43.072Z,-1.13
2022-12-12T19:54:00.845Z,-1.13
2022-12-12T19:58:17.933Z,-1.23
2022-12-12T20:02:36.052Z,-1.27
2022-12-12T20:06:53.030Z,-1.22
2022-12-12T20:11:14.615Z,-1.22
2022-12-12T20:15:31.551Z,-1.19
2022-12-12T20:19:49.768Z,-1.15
2022-12-12T20:24:07.621Z,-1.12
2022-12-12T20:28:25.046Z,-1.16
2022-12-12T20:32:42.105Z,-1.11
2022-12-12T20:36:59.188Z,-1.11
2022-12-12T20:41:24.032Z,-1.26
2022-12-12T20:45:40.881Z,-1.22
2022-12-12T20:49:58.175Z,-1.37
2022-12-12T20:54:18.590Z,-1.46
2022-12-12T20:58:37.664Z,-1.37
2022-12-12T21:02:54.772Z,-1.34
2022-12-12T21:07:11.705Z,-1.23
2022-12-12T21:11:29.792Z,-1.33
2022-12-12T21:15:46.642Z,-1.39
2022-12-12T21:20:06.812Z,-1.26
2022-12-12T21:24:23.945Z,-1.29
2022-12-12T21:28:41.257Z,-1.39
2022-12-12T21:32:58.140Z,-1.37
2022-12-12T21:37:15.352Z,-1.44
2022-12-12T21:41:32.189Z,-1.32
2022-12-12T21:45:49.276Z,-1.48
2022-12-12T21:50:06.912Z,-1.47
2022-12-12T21:54:24.525Z,-1.54
2022-12-12T21:58:43.566Z,-1.44
2022-12-12T22:03:00.709Z,-1.40
2022-12-12T22:07:19.400Z,-1.44
2022-12-12T22:11:42.077Z,-1.39
2022-12-12T22:16:10.945Z,-1.48
2022-12-12T22:20:28.121Z,-1.67
2022-12-12T22:24:44.969Z,-1.58
2022-12-12T22:29:07.064Z,-1.54
2022-12-12T22:33:23.920Z,-1.54
2022-12-12T22:37:41.030Z,-1.63
2022-12-12T22:41:58.284Z,-1.65
2022-12-12T22:46:15.460Z,-1.64
2022-12-12T22:50:32.501Z,-1.85
2022-12-12T22:54:50.806Z,-1.95
2022-12-12T22:59:10.227Z,-1.88
2022-12-12T23:03:27.321Z,-1.85
2022-12-12T23:07:44.272Z,-1.96
2022-12-12T23:12:01.321Z,-1.96
2022-12-12T23:16:21.461Z,-2.03
2022-12-12T23:20:38.704Z,-2.14
2022-12-12T23:24:55.534Z,-2.16
2022-12-12T23:29:17.357Z,-1.96
2022-12-12T23:33:34.203Z,-1.85
2022-12-12T23:37:51.352Z,-1.85
2022-12-12T23:42:08.172Z,-2.07
2022-12-12T23:46:29.009Z,-2.16
2022-12-12T23:50:48.070Z,-2.09
2022-12-12T23:55:05.869Z,-2.05
2022-12-12T23:59:22.901Z,-2.10
